Time;durP1;ratioP1;P1;durP2;ratioP2;P2;SDS_P1;SDS_P2;PMS_P1;PMS_P2;Temp;Humidity;BMP_temperature;BMP_pressure;BME280_temperature;BME280_humidity;BME280_pressure;Samples;Min_cycle;Max_cycle;Signal;HPM_P1;HPM_P2
2022/06/10 00:02:21;;;;;;;2.80;2.50;;;;;;;13.91;87.85;154932.66;5045924;28;20515;-79
2022/06/10 00:04:48;;;;;;;2.90;2.47;;;;;;;13.89;87.31;154927.50;5030845;28;20456;-79
2022/06/10 00:07:14;;;;;;;4.73;3.00;;;;;;;13.87;88.42;154923.56;5028334;28;20459;-79
2022/06/10 00:09:41;;;;;;;3.47;2.37;;;;;;;13.87;88.82;154923.56;5029815;28;20550;-79
2022/06/10 00:12:10;;;;;;;4.37;2.80;;;;;;;13.84;87.99;154915.81;5029606;28;20491;-79
2022/06/10 00:14:37;;;;;;;5.07;2.53;;;;;;;13.82;87.65;154909.34;5044008;28;20531;-79
2022/06/10 00:17:04;;;;;;;3.07;2.70;;;;;;;13.82;87.04;154909.34;5042939;28;20471;-79
2022/06/10 00:19:30;;;;;;;3.57;2.87;;;;;;;13.79;86.91;154902.78;5012752;28;20534;-79
2022/06/10 00:21:57;;;;;;;3.80;2.70;;;;;;;13.78;87.33;154898.91;5029269;28;20479;-79
2022/06/10 00:24:24;;;;;;;3.00;2.70;;;;;;;13.76;88.59;154893.75;5045170;28;20478;-79
2022/06/10 00:26:53;;;;;;;4.40;2.90;;;;;;;13.73;88.60;154885.94;5030710;28;20536;-79
2022/06/10 00:29:21;;;;;;;3.10;2.63;;;;;;;13.72;90.83;154883.34;5045675;28;20475;-79
2022/06/10 00:31:48;;;;;;;3.50;3.20;;;;;;;13.69;90.12;154876.84;5028006;28;20454;-79
2022/06/10 00:34:15;;;;;;;4.83;3.30;;;;;;;13.72;91.99;154883.34;5045373;28;20558;-79
2022/06/10 00:36:41;;;;;;;2.80;2.57;;;;;;;13.69;90.84;154875.53;5029301;28;20461;-79
2022/06/10 00:39:08;;;;;;;3.93;2.87;;;;;;;13.62;90.83;154857.38;5027606;28;20861;-79
2022/06/10 00:41:35;;;;;;;5.50;2.77;;;;;;;13.59;91.26;154850.91;5029235;28;20471;-79
2022/06/10 00:44:01;;;;;;;4.73;2.80;;;;;;;13.57;91.30;154845.72;5031519;28;20452;-79
2022/06/10 00:46:33;;;;;;;2.90;2.60;;;;;;;13.52;92.02;154832.75;5034496;28;20931;-79
2022/06/10 00:49:13;;;;;;;3.40;3.03;;;;;;;13.50;91.01;154827.56;5032593;28;20495;-79
2022/06/10 00:51:42;;;;;;;3.23;2.90;;;;;;;13.51;91.75;154828.81;5027414;28;20490;-79
2022/06/10 00:54:17;;;;;;;3.30;2.77;;;;;;;13.49;92.17;154823.66;5033222;28;21012;-79
2022/06/10 00:56:47;;;;;;;3.10;2.90;;;;;;;13.48;92.00;154821.03;5034245;28;20453;-79
2022/06/10 00:59:16;;;;;;;5.70;4.60;;;;;;;13.43;92.61;154810.66;5032002;28;20455;-79
2022/06/10 01:01:45;;;;;;;3.20;2.70;;;;;;;13.42;92.06;154808.06;5047992;28;20494;-79
2022/06/10 01:04:12;;;;;;;3.90;3.50;;;;;;;13.42;93.38;154808.06;5034197;28;20949;-79
2022/06/10 01:06:39;;;;;;;3.70;2.90;;;;;;;13.38;92.82;154797.69;5029260;28;20460;-79
2022/06/10 01:09:06;;;;;;;3.20;2.90;;;;;;;13.34;92.44;154787.28;5030636;28;20814;-79
2022/06/10 01:11:55;;;;;;;3.23;2.97;;;;;;;13.30;93.05;154776.94;5034358;28;20467;-79
2022/06/10 01:14:31;;;;;;;3.13;2.83;;;;;;;13.27;93.99;154769.13;5024785;28;20463;-79
2022/06/10 01:17:07;;;;;;;3.83;2.63;;;;;;;13.26;93.35;154765.28;5032100;28;20525;-79
2022/06/10 01:19:54;;;;;;;4.50;2.60;;;;;;;13.22;93.03;154754.88;5035569;28;20862;-79
2022/06/10 01:22:40;;;;;;;3.57;2.63;;;;;;;13.20;93.01;154751.00;5049598;28;20533;-79
2022/06/10 01:25:53;;;;;;;4.83;4.00;;;;;;;13.19;92.13;154748.38;5020781;28;20456;-79
2022/06/10 01:28:22;;;;;;;4.80;2.80;;;;;;;13.16;93.17;154740.59;4975953;28;20500;-79
2022/06/10 01:31:08;;;;;;;3.10;2.77;;;;;;;13.13;91.98;154731.53;4991618;28;21023;-79
2022/06/10 01:33:46;;;;;;;5.20;3.57;;;;;;;13.11;92.77;154727.63;5014644;28;20954;-79
2022/06/10 01:36:20;;;;;;;2.83;2.63;;;;;;;13.10;92.99;154725.06;5031914;28;20443;-79
2022/06/10 01:38:54;;;;;;;4.43;2.90;;;;;;;13.06;92.45;154714.59;5032262;28;20505;-79
2022/06/10 01:41:30;;;;;;;7.03;2.80;;;;;;;13.05;92.54;154710.72;5018027;28;20562;-79
2022/06/10 01:44:01;;;;;;;4.03;2.57;;;;;;;13.03;92.00;154706.81;5041027;28;20505;-79
2022/06/10 01:46:32;;;;;;;2.50;2.07;;;;;;;13.01;91.67;154701.63;5041701;28;20981;-79
2022/06/10 01:49:07;;;;;;;4.03;2.70;;;;;;;12.98;92.89;154693.84;5031681;28;20454;-79
2022/06/10 01:51:41;;;;;;;5.57;2.90;;;;;;;12.95;92.05;154684.75;5032136;28;20530;-79
2022/06/10 01:54:13;;;;;;;4.97;3.10;;;;;;;12.93;91.89;154680.88;5027805;28;20451;-79
2022/06/10 01:56:44;;;;;;;3.00;2.70;;;;;;;12.90;92.38;154673.09;5031221;28;20981;-79
2022/06/10 01:59:17;;;;;;;4.73;3.07;;;;;;;12.88;92.96;154666.59;5024140;28;20452;-79
2022/06/10 02:01:49;;;;;;;9.00;4.03;;;;;;;12.87;92.73;154665.28;5025768;28;20479;-79
2022/06/10 02:04:19;;;;;;;3.60;2.77;;;;;;;12.84;92.53;154657.50;5037123;28;20471;-79
2022/06/10 02:06:49;;;;;;;4.60;2.90;;;;;;;12.82;92.36;154653.63;5048161;28;20462;-79
2022/06/10 02:09:19;;;;;;;3.50;2.77;;;;;;;12.78;92.63;154643.28;5046335;28;20518;-79
2022/06/10 02:11:49;;;;;;;3.70;2.97;;;;;;;12.79;93.56;154644.53;5048938;28;20440;-79
2022/06/10 02:14:18;;;;;;;6.07;3.40;;;;;;;12.80;92.78;154648.47;5048526;28;20444;-79
2022/06/10 02:16:48;;;;;;;4.73;2.97;;;;;;;12.78;93.98;154643.28;5029432;28;20562;-79
2022/06/10 02:19:18;;;;;;;4.40;2.83;;;;;;;12.76;93.12;154636.81;5046065;28;20958;-79
2022/06/10 02:21:48;;;;;;;3.83;2.90;;;;;;;12.74;93.92;154631.56;5014933;28;20574;-79
2022/06/10 02:24:19;;;;;;;3.27;2.77;;;;;;;12.73;93.90;154630.28;5033039;28;20451;-79
2022/06/10 02:26:47;;;;;;;3.70;3.17;;;;;;;12.71;94.37;154623.78;5031100;28;20534;-78
2022/06/10 02:29:17;;;;;;;3.20;2.73;;;;;;;12.68;94.05;154616.03;5030871;28;20634;-79
2022/06/10 02:31:48;;;;;;;3.70;3.40;;;;;;;12.63;94.62;154604.34;5028799;28;20447;-79
2022/06/10 02:34:14;;;;;;;2.60;2.40;;;;;;;12.60;95.06;154596.56;5023079;28;20526;-79
2022/06/10 02:36:46;;;;;;;5.60;3.13;;;;;;;12.55;96.51;154583.59;5030875;28;20444;-79
2022/06/10 02:39:18;;;;;;;6.60;2.80;;;;;;;12.54;95.93;154581.03;5030319;28;20782;-79
2022/06/10 02:41:50;;;;;;;3.53;2.87;;;;;;;12.52;96.38;154575.78;5014839;28;20568;-79
2022/06/10 02:44:21;;;;;;;4.07;3.37;;;;;;;12.47;97.27;154561.59;5031181;28;20954;-79
2022/06/10 02:47:05;;;;;;;4.83;3.97;;;;;;;12.42;97.46;154548.56;5027045;28;20455;-79
2022/06/10 02:49:32;;;;;;;4.50;3.30;;;;;;;12.41;98.49;154546.00;5000576;28;20459;-79
2022/06/10 02:51:59;;;;;;;4.27;3.40;;;;;;;12.37;98.54;154536.91;5047573;28;20554;-79
2022/06/10 02:54:29;;;;;;;4.30;3.50;;;;;;;12.37;98.29;154535.59;5031009;28;20514;-79
2022/06/10 02:56:56;;;;;;;3.30;3.00;;;;;;;12.34;98.76;154527.88;5029718;28;20459;-79
2022/06/10 03:02:20;;;;;;;3.63;2.73;;;;;;;12.25;99.49;154504.50;5044756;28;20471;-79
2022/06/10 03:04:59;;;;;;;3.77;3.20;;;;;;;12.25;100.00;154504.50;5032079;28;20443;-79
2022/06/10 03:07:38;;;;;;;4.10;3.30;;;;;;;12.21;99.44;154496.72;5042741;28;20463;-79
2022/06/10 03:10:13;;;;;;;3.83;3.43;;;;;;;12.15;100.00;154481.16;5030382;28;20440;-79
2022/06/10 03:12:44;;;;;;;3.70;3.30;;;;;;;12.14;99.50;154478.59;5030539;28;20459;-79
2022/06/10 03:15:35;;;;;;;5.60;3.70;;;;;;;12.11;99.92;154470.81;5045927;28;20460;-79
2022/06/10 03:18:13;;;;;;;5.30;2.90;;;;;;;12.10;99.15;154468.19;5046546;28;20974;-79
2022/06/10 03:20:58;;;;;;;3.57;3.27;;;;;;;12.12;99.98;154472.13;5032197;28;20516;-75
2022/06/10 03:23:31;;;;;;;5.37;3.43;;;;;;;12.04;99.47;154451.38;5027912;28;20508;-79
2022/06/10 03:26:05;;;;;;;4.30;3.50;;;;;;;12.06;100.00;154456.53;5013774;28;20448;-79
2022/06/10 03:28:35;;;;;;;3.90;3.50;;;;;;;12.07;100.00;154460.41;5030024;28;20452;-79
2022/06/10 03:31:04;;;;;;;4.90;3.57;;;;;;;12.05;100.00;154453.94;5030321;28;20447;-79
2022/06/10 03:33:35;;;;;;;3.47;3.07;;;;;;;12.04;100.00;154451.38;5030611;28;20574;-79
2022/06/10 03:36:04;;;;;;;4.00;3.60;;;;;;;12.06;100.00;154457.84;5029823;28;20450;-79
2022/06/10 03:38:32;;;;;;;5.10;3.87;;;;;;;12.02;100.00;154447.44;5044335;28;20486;-79
2022/06/10 03:41:02;;;;;;;3.83;3.43;;;;;;;12.03;100.00;154450.06;5043222;28;20505;-79
2022/06/10 03:43:34;;;;;;;3.80;3.40;;;;;;;12.02;100.00;154446.19;5031526;28;20534;-79
2022/06/10 03:46:03;;;;;;;8.43;3.93;;;;;;;12.06;100.00;154457.84;5028993;28;20558;-79
2022/06/10 03:48:35;;;;;;;5.00;3.90;;;;;;;12.08;100.00;154463.03;5030245;28;20550;-79
2022/06/10 03:51:02;;;;;;;5.87;3.77;;;;;;;12.06;100.00;154456.53;5030477;28;20440;-79
2022/06/10 03:53:29;;;;;;;4.27;3.60;;;;;;;12.02;100.00;154447.44;5014158;28;20458;-79
2022/06/10 03:55:56;;;;;;;5.10;3.57;;;;;;;12.01;100.00;154443.59;5029984;28;20970;-79
2022/06/10 03:58:23;;;;;;;5.83;3.03;;;;;;;12.01;100.00;154444.91;5042316;28;20853;-79
2022/06/10 04:00:49;;;;;;;6.80;3.20;;;;;;;12.03;100.00;154448.75;5025499;28;20472;-79
2022/06/10 04:03:16;;;;;;;4.10;3.47;;;;;;;12.07;100.00;154459.16;5028059;28;20479;-79
2022/06/10 04:05:45;;;;;;;4.70;3.53;;;;;;;12.11;100.00;154469.50;5021441;28;20447;-79
2022/06/10 04:08:12;;;;;;;3.93;3.43;;;;;;;12.20;100.00;154494.13;5029397;28;20484;-79
2022/06/10 04:10:38;;;;;;;5.33;3.30;;;;;;;12.30;100.00;154517.47;5029632;28;20547;-79
2022/06/10 04:13:07;;;;;;;4.10;3.43;;;;;;;12.54;100.00;154579.72;5026766;28;20815;-79
2022/06/10 04:15:34;;;;;;;5.00;3.57;;;;;;;12.71;99.01;154623.78;5030275;28;20440;-79
2022/06/10 04:18:00;;;;;;;7.60;3.97;;;;;;;12.89;97.74;154669.22;5029974;28;21004;-79
2022/06/10 04:20:29;;;;;;;5.00;3.40;;;;;;;13.06;96.80;154714.59;5029348;28;20542;-78
2022/06/10 04:22:57;;;;;;;3.27;2.97;;;;;;;13.27;95.40;154769.13;5029212;28;20969;-79
2022/06/10 04:25:24;;;;;;;5.57;3.63;;;;;;;13.48;94.86;154822.34;5022065;28;20478;-79
2022/06/10 04:27:51;;;;;;;3.53;3.23;;;;;;;13.70;93.65;154879.47;5029051;28;20459;-79
2022/06/10 04:30:23;;;;;;;4.70;3.60;;;;;;;14.04;93.79;154966.41;5026612;28;20825;-79
2022/06/10 04:32:50;;;;;;;4.00;3.60;;;;;;;14.24;91.75;155018.38;5028918;28;20506;-79
2022/06/10 04:35:17;;;;;;;4.80;3.27;;;;;;;14.37;88.91;155050.88;5028329;28;20443;-79
2022/06/10 04:37:45;;;;;;;5.03;3.50;;;;;;;14.36;88.83;155049.59;5045038;28;20459;-79
2022/06/10 04:40:16;;;;;;;4.00;3.40;;;;;;;14.45;87.63;155071.69;5030616;28;20459;-79
2022/06/10 04:42:43;;;;;;;6.30;3.80;;;;;;;14.75;88.43;155148.25;5030581;28;20483;-79
2022/06/10 04:45:11;;;;;;;3.30;3.00;;;;;;;15.03;87.42;155221.03;5026665;28;20491;-79
2022/06/10 04:47:38;;;;;;;5.37;3.53;;;;;;;15.20;85.76;155266.50;5012798;28;20471;-79
2022/06/10 04:50:06;;;;;;;6.73;3.93;;;;;;;15.31;84.78;155293.78;5028975;28;20534;-79
2022/06/10 04:52:34;;;;;;;5.10;3.53;;;;;;;15.54;83.54;155352.38;5044707;28;20459;-79
2022/06/10 04:55:01;;;;;;;3.20;2.90;;;;;;;15.81;83.42;155423.81;5028839;28;20456;-79
2022/06/10 04:57:29;;;;;;;8.37;3.70;;;;;;;16.11;81.59;155499.25;5046836;28;20460;-79
2022/06/10 04:59:56;;;;;;;5.23;3.40;;;;;;;16.31;80.79;155552.56;5032211;28;20442;-79
2022/06/10 05:02:23;;;;;;;3.87;3.43;;;;;;;16.48;78.72;155595.47;5047631;28;20779;-79
2022/06/10 05:04:49;;;;;;;5.20;3.23;;;;;;;16.68;78.74;155646.28;5025902;28;20514;-79
2022/06/10 05:07:16;;;;;;;5.30;3.50;;;;;;;16.91;77.25;155706.13;5048285;28;20539;-79
2022/06/10 05:09:43;;;;;;;5.63;4.20;;;;;;;17.00;75.73;155730.81;5032201;28;20427;-79
2022/06/10 05:12:10;;;;;;;3.47;3.00;;;;;;;17.17;76.22;155772.47;5049813;28;20459;-79
2022/06/10 05:14:38;;;;;;;5.67;3.60;;;;;;;17.19;75.33;155777.66;5048543;28;20478;-79
2022/06/10 05:17:05;;;;;;;4.73;2.73;;;;;;;17.41;75.25;155834.94;5032785;28;20450;-79
2022/06/10 05:19:32;;;;;;;3.80;3.27;;;;;;;17.52;75.48;155863.59;5050215;28;20521;-79
2022/06/10 05:22:02;;;;;;;3.30;3.00;;;;;;;17.70;72.85;155909.19;5014312;28;20450;-77
2022/06/10 05:24:28;;;;;;;3.37;2.93;;;;;;;17.92;74.11;155966.50;5014309;28;20490;-78
2022/06/10 05:26:55;;;;;;;3.90;3.50;;;;;;;17.96;72.87;155976.88;5029818;28;20832;-77
2022/06/10 05:29:22;;;;;;;3.83;3.00;;;;;;;17.99;73.00;155986.00;5046867;28;20442;-77
2022/06/10 05:31:50;;;;;;;3.67;2.93;;;;;;;18.09;72.14;156012.03;5053076;28;20443;-78
2022/06/10 05:37:01;;;;;;;3.20;2.83;;;;;;;18.48;70.54;156112.38;5053415;28;20435;-79
2022/06/10 05:39:28;;;;;;;4.03;3.30;;;;;;;18.63;70.37;156151.47;5055183;28;20860;-79
2022/06/10 05:42:07;;;;;;;4.80;3.40;;;;;;;19.01;70.05;156249.16;5051193;28;20528;-78
2022/06/10 05:44:34;;;;;;;3.07;2.77;;;;;;;19.32;68.68;156328.69;5019714;28;20451;-78
2022/06/10 05:47:03;;;;;;;5.00;2.80;;;;;;;19.25;68.32;156310.41;5036507;28;20829;-78
2022/06/10 05:49:30;;;;;;;3.30;2.93;;;;;;;19.23;68.22;156306.53;5054037;28;20438;-78
2022/06/10 05:51:57;;;;;;;4.40;2.80;;;;;;;19.46;67.32;156365.19;5051743;28;20878;-79
2022/06/10 05:54:25;;;;;;;5.03;3.30;;;;;;;19.78;66.81;156447.31;5052366;28;20519;-78
2022/06/10 05:56:51;;;;;;;6.33;2.90;;;;;;;19.72;66.60;156433.03;5041062;28;20542;-79
2022/06/10 05:59:19;;;;;;;4.40;2.80;;;;;;;19.99;65.89;156503.41;5051649;28;20449;-80
2022/06/10 06:01:47;;;;;;;3.77;2.77;;;;;;;19.80;65.45;156453.84;5046428;28;20484;-79
2022/06/10 06:04:15;;;;;;;3.33;3.00;;;;;;;20.08;65.00;156524.25;5023608;28;20475;-80
2022/06/10 06:06:43;;;;;;;4.43;2.80;;;;;;;20.40;64.07;156607.78;5031968;28;20454;-79
2022/06/10 06:09:13;;;;;;;4.60;2.90;;;;;;;20.77;61.98;156704.34;5032455;28;20959;-79
2022/06/10 06:11:40;;;;;;;7.00;3.07;;;;;;;21.10;61.69;156790.50;5031523;28;20423;-80
2022/06/10 06:14:07;;;;;;;6.43;3.20;;;;;;;21.01;60.60;156766.97;5033299;28;20431;-79
2022/06/10 06:16:33;;;;;;;3.83;2.97;;;;;;;20.96;61.56;156752.63;5045993;28;20432;-79
2022/06/10 06:19:00;;;;;;;4.03;3.33;;;;;;;21.11;60.98;156793.13;5031630;28;20432;-79
2022/06/10 06:21:28;;;;;;;5.50;2.90;;;;;;;21.28;61.56;156836.19;5031234;28;20452;-79
2022/06/10 06:23:55;;;;;;;3.30;2.70;;;;;;;21.51;60.15;156896.22;5031632;28;20558;-80
2022/06/10 06:26:22;;;;;;;3.40;2.60;;;;;;;21.76;60.12;156960.22;5031897;28;20439;-80
2022/06/10 06:28:48;;;;;;;3.40;2.83;;;;;;;21.90;58.35;156996.78;5032658;28;20478;-80
2022/06/10 06:31:15;;;;;;;4.70;3.23;;;;;;;21.77;58.81;156964.09;5033221;28;20523;-80
2022/06/10 06:33:42;;;;;;;3.93;2.70;;;;;;;22.07;55.93;157039.88;5022243;28;20550;-80
2022/06/10 06:36:15;;;;;;;5.30;2.93;;;;;;;21.96;56.34;157011.16;5027939;28;20981;-80
2022/06/10 06:38:43;;;;;;;3.33;3.03;;;;;;;22.16;54.92;157063.41;5032416;28;20838;-80
2022/06/10 06:41:11;;;;;;;3.33;3.00;;;;;;;22.15;55.87;157060.78;5012032;28;20526;-81
2022/06/10 06:43:37;;;;;;;3.07;2.77;;;;;;;22.00;56.33;157021.63;5028045;28;20542;-80
2022/06/10 06:46:04;;;;;;;4.20;3.10;;;;;;;21.92;57.63;157000.72;5029384;28;20539;-80
2022/06/10 06:48:31;;;;;;;4.77;3.10;;;;;;;21.35;58.18;156854.44;5029540;28;20667;-80
2022/06/10 06:50:58;;;;;;;3.10;2.77;;;;;;;21.54;57.98;156904.06;5029019;28;20856;-80
2022/06/10 06:53:25;;;;;;;3.90;3.47;;;;;;;21.79;57.57;156969.31;5032667;28;20554;-80
2022/06/10 06:55:53;;;;;;;3.60;3.10;;;;;;;22.33;57.08;157107.78;5030855;28;20424;-80
2022/06/10 06:58:20;;;;;;;3.77;2.73;;;;;;;22.44;56.56;157136.53;5027255;28;20487;-81
2022/06/10 07:00:47;;;;;;;6.80;3.27;;;;;;;22.51;54.94;157153.50;5044931;28;20609;-80
2022/06/10 07:03:14;;;;;;;7.33;3.43;;;;;;;22.62;55.13;157182.25;5031091;28;20480;-80
2022/06/10 07:05:42;;;;;;;3.80;3.20;;;;;;;22.20;54.62;157073.84;5029944;28;20542;-80
2022/06/10 07:08:10;;;;;;;3.67;3.00;;;;;;;22.05;57.61;157036.00;5024475;28;20451;-81
2022/06/10 07:10:37;;;;;;;4.07;3.20;;;;;;;22.05;57.44;157034.69;5027247;28;20466;-80
2022/06/10 07:13:06;;;;;;;5.17;3.20;;;;;;;22.24;58.09;157085.59;5028488;28;20551;-80
2022/06/10 07:15:33;;;;;;;6.27;3.00;;;;;;;22.48;57.26;157146.97;5030329;28;20542;-81
2022/06/10 07:18:00;;;;;;;4.83;3.63;;;;;;;22.70;55.91;157203.19;5032196;28;20535;-80
2022/06/10 07:20:29;;;;;;;5.23;4.03;;;;;;;22.33;56.21;157109.13;5029385;28;20531;-80
2022/06/10 07:22:57;;;;;;;7.50;4.03;;;;;;;22.15;56.14;157060.78;5027554;28;20977;-80
2022/06/10 07:25:24;;;;;;;5.83;3.57;;;;;;;22.32;55.22;157106.47;5016854;28;20452;-80
2022/06/10 07:27:52;;;;;;;4.83;3.77;;;;;;;22.04;58.18;157032.03;5043443;28;20855;-80
2022/06/10 07:30:21;;;;;;;6.50;3.60;;;;;;;22.40;57.00;157126.06;5030310;28;20526;-80
2022/06/10 07:32:48;;;;;;;6.47;3.47;;;;;;;22.95;55.78;157269.81;5031071;28;20448;-80
2022/06/10 07:35:17;;;;;;;4.90;3.27;;;;;;;22.97;54.00;157275.09;5012644;28;20456;-80
2022/06/10 07:37:43;;;;;;;5.47;3.50;;;;;;;23.30;53.84;157358.72;5022829;28;20792;-80
2022/06/10 07:41:56;;;;;;;3.43;3.10;;;;;;;23.39;53.61;157382.28;5027984;28;20562;-81
2022/06/10 07:42:59;;;;;;;4.50;3.23;;;;;;;23.73;51.95;157471.16;5030686;28;20946;-80
2022/06/10 07:45:28;;;;;;;4.33;3.60;;;;;;;23.75;52.97;157475.13;5028269;28;20914;-81
2022/06/10 07:47:54;;;;;;;4.37;3.70;;;;;;;23.78;51.35;157484.22;5040973;28;20464;-81
2022/06/10 07:50:23;;;;;;;5.40;3.20;;;;;;;23.78;52.26;157484.22;5028332;28;20526;-81
2022/06/10 07:52:49;;;;;;;4.07;3.03;;;;;;;23.85;52.48;157502.56;5043247;28;20456;-81
2022/06/10 07:55:16;;;;;;;3.90;3.33;;;;;;;23.97;50.04;157532.59;5045080;28;20540;-81
2022/06/10 07:57:43;;;;;;;5.37;3.33;;;;;;;23.92;50.93;157519.53;5009785;28;20595;-81
2022/06/10 08:00:11;;;;;;;3.57;3.03;;;;;;;24.34;49.78;157629.44;5028927;28;20800;-80
2022/06/10 08:02:40;;;;;;;4.40;2.77;;;;;;;24.44;49.37;157655.56;5054667;28;20438;-81
2022/06/10 08:05:10;;;;;;;5.20;3.03;;;;;;;24.73;47.93;157730.13;5009496;28;20462;-81
2022/06/10 08:07:37;;;;;;;5.23;3.03;;;;;;;24.57;47.93;157689.59;5041019;28;20948;-81
2022/06/10 08:10:05;;;;;;;3.47;2.70;;;;;;;24.38;48.91;157638.59;5047649;28;20972;-81
2022/06/10 08:12:32;;;;;;;5.20;2.80;;;;;;;24.10;48.16;157567.97;5042870;28;20469;-81
2022/06/10 08:14:59;;;;;;;2.87;2.50;;;;;;;23.52;50.07;157416.25;5046507;28;20446;-81
2022/06/10 08:17:25;;;;;;;2.90;2.60;;;;;;;23.83;50.30;157497.28;5042639;28;20508;-81
2022/06/10 08:19:54;;;;;;;4.03;2.80;;;;;;;24.46;49.56;157659.53;5026908;28;20444;-81
2022/06/10 08:22:35;;;;;;;5.47;3.10;;;;;;;24.40;48.29;157643.81;5053287;28;20505;-81
2022/06/10 08:25:06;;;;;;;5.13;2.80;;;;;;;23.91;49.66;157516.91;5045087;28;20971;-81
2022/06/10 08:27:33;;;;;;;3.63;3.10;;;;;;;23.46;49.92;157401.88;5025818;28;20470;-81
2022/06/10 08:30:00;;;;;;;3.00;2.57;;;;;;;23.70;49.67;157463.31;5044508;28;20462;-81
2022/06/10 08:32:27;;;;;;;2.93;2.50;;;;;;;24.17;47.81;157585.00;5041916;28;20546;-82
2022/06/10 08:34:55;;;;;;;4.97;3.47;;;;;;;24.89;46.67;157770.78;5044897;28;20439;-81
2022/06/10 08:37:24;;;;;;;3.13;2.77;;;;;;;24.90;44.92;157774.69;5046784;28;20545;-81
2022/06/10 08:39:51;;;;;;;3.30;3.00;;;;;;;24.65;47.08;157709.19;5048488;28;20454;-81
2022/06/10 08:42:28;;;;;;;4.60;3.60;;;;;;;25.02;44.58;157806.06;5048097;28;20914;-81
2022/06/10 08:44:56;;;;;;;4.17;3.07;;;;;;;25.06;44.40;157816.56;5040621;28;21014;-81
2022/06/10 08:47:37;;;;;;;5.70;2.73;;;;;;;24.83;45.33;157756.38;5029769;28;20461;-81
2022/06/10 08:50:24;;;;;;;2.97;2.40;;;;;;;25.55;45.52;157943.53;5047499;28;20541;-82
2022/06/10 08:52:58;;;;;;;4.77;2.60;;;;;;;25.40;44.40;157905.53;5030757;28;20495;-81
2022/06/10 08:55:37;;;;;;;3.53;3.00;;;;;;;25.41;43.21;157906.84;5047449;28;20487;-81
2022/06/10 08:58:13;;;;;;;2.90;2.67;;;;;;;24.85;44.56;157760.28;5047759;28;20454;-81
2022/06/10 09:00:40;;;;;;;3.10;2.77;;;;;;;24.89;44.48;157772.03;5049321;28;20491;-81
2022/06/10 09:03:13;;;;;;;3.60;2.77;;;;;;;25.42;44.95;157910.75;5031714;28;20949;-81
2022/06/10 09:05:45;;;;;;;4.80;3.10;;;;;;;25.59;43.10;157952.69;5052510;28;20969;-81
2022/06/10 09:08:17;;;;;;;4.13;2.57;;;;;;;25.87;42.66;158026.00;5042444;28;20454;-81
2022/06/10 09:10:48;;;;;;;3.00;2.63;;;;;;;25.62;43.48;157961.88;5046826;28;20867;-81
2022/06/10 09:13:32;;;;;;;5.10;2.80;;;;;;;25.91;43.00;158036.50;5049734;28;20494;-81
2022/06/10 09:16:07;;;;;;;3.67;2.77;;;;;;;25.28;44.26;157872.84;5048540;28;20546;-81
2022/06/10 09:18:37;;;;;;;3.40;2.80;;;;;;;25.28;43.49;157874.09;5067458;28;20489;-81
2022/06/10 09:21:13;;;;;;;4.93;3.13;;;;;;;25.25;43.99;157866.28;5028945;28;20483;-81
2022/06/10 09:23:42;;;;;;;3.90;3.23;;;;;;;24.65;45.04;157710.50;5040828;28;20482;-80
2022/06/10 09:26:12;;;;;;;5.43;3.40;;;;;;;25.10;48.50;157827.00;5052477;28;20557;-81
2022/06/10 09:28:39;;;;;;;3.30;2.73;;;;;;;25.59;42.95;157952.69;5051753;28;20512;-81
2022/06/10 09:31:09;;;;;;;3.47;2.70;;;;;;;25.42;42.90;157910.75;5050722;28;20795;-80
2022/06/10 09:33:42;;;;;;;3.50;2.90;;;;;;;25.71;42.63;157984.09;5051151;28;20451;-80
2022/06/10 09:36:16;;;;;;;4.50;2.83;;;;;;;25.46;43.39;157918.63;5032807;28;21170;-80
2022/06/10 09:38:53;;;;;;;5.43;2.90;;;;;;;25.78;43.00;158002.47;5052050;28;20444;-80
2022/06/10 09:41:28;;;;;;;3.30;2.83;;;;;;;24.65;44.46;157710.50;5052875;28;20453;-80
2022/06/10 09:44:03;;;;;;;3.23;2.93;;;;;;;24.48;44.38;157664.75;5047376;28;20922;-80
2022/06/10 09:46:42;;;;;;;6.00;3.00;;;;;;;24.38;44.60;157638.59;5048976;28;20936;-80
2022/06/10 09:49:21;;;;;;;4.80;2.17;;;;;;;24.50;42.83;157669.97;5044304;28;20462;-80
2022/06/10 09:51:59;;;;;;;3.20;2.90;;;;;;;24.36;42.55;157633.38;5042094;28;20468;-80
2022/06/10 09:54:39;;;;;;;2.80;2.33;;;;;;;24.50;41.25;157671.28;5057283;28;20812;-80
2022/06/10 09:57:18;;;;;;;3.13;2.20;;;;;;;24.43;46.42;157651.69;5047025;28;20478;-80
2022/06/10 09:59:50;;;;;;;3.87;2.63;;;;;;;24.58;42.51;157692.22;5052466;28;20881;-81
2022/06/10 10:02:24;;;;;;;3.60;2.37;;;;;;;24.85;41.80;157760.28;5031698;28;20865;-80
2022/06/10 10:05:00;;;;;;;4.10;2.30;;;;;;;25.97;38.98;158052.22;5047330;28;20493;-80
2022/06/10 10:07:37;;;;;;;3.10;2.03;;;;;;;26.02;38.69;158065.31;5040451;28;20512;-80
2022/06/10 10:10:15;;;;;;;3.13;2.20;;;;;;;25.94;39.33;158045.66;5048333;28;20435;-80
2022/06/10 10:12:48;;;;;;;3.83;1.90;;;;;;;25.89;37.64;158031.25;5043356;28;20457;-80
2022/06/10 10:15:21;;;;;;;4.40;2.20;;;;;;;25.16;37.79;157841.41;5012136;28;20439;-81
2022/06/10 10:18:10;;;;;;;3.73;2.10;;;;;;;24.77;38.88;157741.94;5042535;28;20501;-80
2022/06/10 10:20:58;;;;;;;2.47;2.27;;;;;;;24.52;38.93;157675.19;5049470;28;20455;-80
2022/06/10 10:23:31;;;;;;;2.50;2.00;;;;;;;24.67;40.72;157714.47;5050305;28;20459;-80
2022/06/10 10:25:59;;;;;;;3.60;2.50;;;;;;;24.15;40.04;157579.72;5033590;28;20620;-80
2022/06/10 10:28:29;;;;;;;5.10;2.20;;;;;;;23.86;41.02;157503.84;5033443;28;20435;-80
2022/06/10 10:31:03;;;;;;;3.57;2.50;;;;;;;23.66;41.53;157451.56;5045930;28;20550;-80
2022/06/10 10:33:29;;;;;;;5.53;2.20;;;;;;;24.08;42.34;157562.75;5051923;28;20451;-80
2022/06/10 10:35:59;;;;;;;4.77;2.00;;;;;;;24.58;40.96;157690.91;5051310;28;20831;-80
2022/06/10 10:38:33;;;;;;;4.33;2.60;;;;;;;25.07;45.00;157819.16;5052192;28;20542;-80
2022/06/10 10:41:00;;;;;;;3.27;2.50;;;;;;;25.10;40.21;157827.00;5053365;28;20416;-80
2022/06/10 10:43:28;;;;;;;3.57;2.40;;;;;;;25.34;42.38;157888.50;5054505;28;20450;-80
2022/06/10 10:45:58;;;;;;;3.10;2.57;;;;;;;24.92;39.57;157778.59;5061615;28;20466;-80
2022/06/10 10:48:27;;;;;;;2.30;2.10;;;;;;;25.04;42.77;157811.34;5052471;28;20438;-80
2022/06/10 10:50:58;;;;;;;4.87;2.33;;;;;;;25.15;44.31;157838.81;5038154;28;20538;-80
2022/06/10 10:53:28;;;;;;;2.80;1.87;;;;;;;25.00;39.97;157800.84;5046863;28;20450;-80
2022/06/10 10:56:00;;;;;;;3.37;1.80;;;;;;;24.85;41.35;157760.28;5051620;28;20439;-80
2022/06/10 10:58:29;;;;;;;4.03;2.30;;;;;;;25.19;40.27;157850.59;5048520;28;20506;-80
2022/06/10 11:00:59;;;;;;;2.90;2.10;;;;;;;25.29;39.62;157875.44;5052387;28;20879;-80
2022/06/10 11:03:29;;;;;;;2.83;2.30;;;;;;;25.14;40.18;157836.19;5051462;28;20557;-80
2022/06/10 11:05:57;;;;;;;2.87;2.20;;;;;;;24.83;45.28;157755.06;5051262;28;20475;-80
2022/06/10 11:08:30;;;;;;;2.83;2.00;;;;;;;24.19;40.48;157590.22;5032846;28;20545;-80
2022/06/10 11:11:15;;;;;;;2.60;2.30;;;;;;;24.06;41.96;157557.47;5034848;28;20442;-81
2022/06/10 11:13:53;;;;;;;2.33;2.10;;;;;;;23.73;40.95;157469.84;5046497;28;21007;-80
2022/06/10 11:16:38;;;;;;;3.07;2.07;;;;;;;23.66;41.61;157452.88;5052834;28;20434;-79
2022/06/10 11:19:19;;;;;;;2.73;2.50;;;;;;;23.32;42.21;157365.25;5031222;28;20436;-79
2022/06/10 11:21:52;;;;;;;5.03;2.67;;;;;;;23.24;42.76;157343.03;5031110;28;20436;-79
2022/06/10 11:24:24;;;;;;;2.27;2.07;;;;;;;23.37;41.91;157378.38;5031780;28;20566;-79
2022/06/10 11:26:55;;;;;;;2.80;2.10;;;;;;;22.92;42.25;157262.03;5033043;28;20545;-80
2022/06/10 11:29:23;;;;;;;2.90;2.17;;;;;;;23.42;43.74;157390.13;5049879;28;20457;-79
2022/06/10 11:31:52;;;;;;;3.17;2.43;;;;;;;23.25;42.66;157346.94;5051411;28;20435;-79
2022/06/10 11:34:22;;;;;;;3.00;2.40;;;;;;;23.19;42.27;157331.28;5050837;28;20438;-80
2022/06/10 11:36:50;;;;;;;5.30;2.50;;;;;;;22.91;43.13;157258.06;5041317;28;20447;-79
2022/06/10 11:39:19;;;;;;;2.87;2.40;;;;;;;22.86;42.89;157246.31;5033371;28;20518;-79
2022/06/10 11:42:07;;;;;;;4.60;2.37;;;;;;;22.60;42.90;157178.34;5051662;28;20883;-79
2022/06/10 11:44:38;;;;;;;6.20;2.00;;;;;;;22.55;44.19;157163.97;5031186;28;20474;-79
2022/06/10 11:47:12;;;;;;;2.77;1.83;;;;;;;23.12;43.71;157311.63;5049331;28;20554;-79